logo
Rechercher aéroport 
image banner adimage banner adimage banner ad
image banner ad

SCVV - Los Maitenes De Villa Vieja

Situé à La Union, Chile

ICAO - SCVV, IATA -

Données fournies par Airmate  

Information générale

Coordonnées: S40°19'1" W72°58'46"
Élévation : 147 feet MSL.
Variation magnétique : 7° East
Voir autres Aéroports à Los Ríos

Données opérationnelles

Special qualification required
Heure actuelle UTC:
Heure actuelle locale:
METAR: SCJO 161900Z VRB01KT 9999 OVC015 10/07 Q1024
TAF: TAF COR SCJO 161121Z 1612/1624 VRB02KT 0500 FG VV002 TN05/1612Z TX09/1618Z BECMG 1616/1618 2000 BR BKN005 BECMG 1618/1620 9999 NSW BKN010 BECMG 1620/1622 CAVOK BECMG 1622/1624 2000 BR BKN005
Voir NOTAMs / SUP AIP / TFR affectant cet aéroport [VIEW]
Fréquences de communication: [VIEW]

Pistes:

Identifiant RWYQFULongueur (ft)Largeur (ft)SurfaceLDA (ft)
01229759UNK
19229759UNK
18193°231061DIRT
3613°231061DIRT

Coordonnées de l'aéroport

Adresse: La Union Chile

Autres services d'aviation

Clubs d'aviation (sans but lucratif)

Club Aéreo Río Bueno Y La Unión

Club Aéreo Río Bueno Y La Unión

Vue satellite de SCVV